createdAt,value
2022-12-18T00:00:13.780Z,101594.50
2022-12-18T00:02:42.195Z,101599.88
2022-12-18T00:05:11.048Z,101600.66
2022-12-18T00:07:39.691Z,101596.13
2022-12-18T00:10:09.862Z,101611.44
2022-12-18T00:12:38.321Z,101602.16
2022-12-18T00:15:09.421Z,101598.63
2022-12-18T00:17:37.702Z,101610.03
2022-12-18T00:20:07.295Z,101609.47
2022-12-18T00:22:35.680Z,101619.00
2022-12-18T00:25:04.097Z,101619.00
2022-12-18T00:27:32.407Z,101627.56
2022-12-18T00:30:00.677Z,101620.09
2022-12-18T00:32:30.351Z,101622.84
2022-12-18T00:34:58.826Z,101633.03
2022-12-18T00:37:27.112Z,101629.09
2022-12-18T00:39:55.433Z,101638.41
2022-12-18T00:42:41.369Z,101635.97
2022-12-18T00:45:13.036Z,101636.09
2022-12-18T00:47:43.024Z,101647.28
2022-12-18T00:50:12.256Z,101648.25
2022-12-18T00:52:41.836Z,101649.88
2022-12-18T00:55:10.522Z,101649.88
2022-12-18T00:57:38.883Z,101652.41
2022-12-18T01:00:11.530Z,101654.94
2022-12-18T01:02:40.413Z,101656.66
2022-12-18T01:05:11.688Z,101654.28
2022-12-18T01:07:40.279Z,101665.44
2022-12-18T01:10:11.740Z,101663.91
2022-12-18T01:12:40.604Z,101669.16
2022-12-18T01:15:10.244Z,101669.38
2022-12-18T01:17:38.678Z,101666.09
2022-12-18T01:20:11.465Z,101680.66
2022-12-18T01:22:39.771Z,101672.22
2022-12-18T01:25:09.176Z,101676.16
2022-12-18T01:27:37.478Z,101677.03
2022-12-18T01:30:07.275Z,101676.16
2022-12-18T01:32:35.860Z,101692.06
2022-12-18T01:35:04.385Z,101702.22
2022-12-18T01:37:34.307Z,101712.31
2022-12-18T01:40:03.347Z,101709.69
2022-12-18T01:42:31.802Z,101711.34
2022-12-18T01:45:07.929Z,101712.75
2022-12-18T01:47:41.078Z,101714.50
2022-12-18T01:50:15.224Z,101723.06
2022-12-18T01:52:50.900Z,101718.81
2022-12-18T01:55:24.491Z,101714.50
2022-12-18T01:57:56.948Z,101723.06
2022-12-18T02:00:27.484Z,101719.69
2022-12-18T02:02:56.407Z,101724.81
2022-12-18T02:05:38.641Z,101731.41
2022-12-18T02:08:17.185Z,101731.59
2022-12-18T02:10:56.369Z,101732.59
2022-12-18T02:13:38.857Z,101744.41
2022-12-18T02:16:15.992Z,101756.47
2022-12-18T02:18:49.790Z,101758.13
2022-12-18T02:21:30.499Z,101753.31
2022-12-18T02:24:19.982Z,101761.72
2022-12-18T02:26:53.080Z,101764.03
2022-12-18T02:29:28.478Z,101764.56
2022-12-18T02:32:00.591Z,101757.47
2022-12-18T02:34:33.653Z,101766.69
2022-12-18T02:37:06.751Z,101775.19
2022-12-18T02:39:37.650Z,101777.06
2022-12-18T02:42:09.088Z,101788.25
2022-12-18T02:44:44.501Z,101791.53
2022-12-18T02:47:14.546Z,101787.16
2022-12-18T02:49:55.765Z,101788.81
2022-12-18T02:52:33.726Z,101787.03
2022-12-18T02:55:18.015Z,101782.84
2022-12-18T02:57:55.170Z,101803.25
2022-12-18T03:00:30.767Z,101801.72
2022-12-18T03:03:07.623Z,101807.63
2022-12-18T03:05:40.832Z,101814.34
2022-12-18T03:08:14.604Z,101820.25
2022-12-18T03:10:48.074Z,101827.81
2022-12-18T03:13:24.157Z,101832.84
2022-12-18T03:15:57.058Z,101834.34
2022-12-18T03:18:31.916Z,101839.19
2022-12-18T03:21:05.881Z,101834.56
2022-12-18T03:23:41.750Z,101837.09
2022-12-18T03:26:15.281Z,101842.03
2022-12-18T03:28:53.372Z,101840.06
2022-12-18T03:31:25.049Z,101843.06
2022-12-18T03:33:57.392Z,101848.78
2022-12-18T03:36:26.906Z,101854.47
2022-12-18T03:38:55.434Z,101859.28
2022-12-18T03:41:32.113Z,101857.53
2022-12-18T03:44:08.887Z,101859.94
2022-12-18T03:46:49.499Z,101861.56
2022-12-18T03:49:26.120Z,101868.38
2022-12-18T03:52:00.136Z,101867.59
2022-12-18T03:54:30.256Z,101868.59
2022-12-18T03:57:05.854Z,101872.09
2022-12-18T03:59:37.597Z,101873.09
2022-12-18T04:02:09.158Z,101875.09
2022-12-18T04:04:39.477Z,101879.59
2022-12-18T04:07:09.032Z,101890.88
2022-12-18T04:09:38.761Z,101890.13
2022-12-18T04:12:07.423Z,101893.53
2022-12-18T04:14:37.472Z,101889.38
2022-12-18T04:17:06.079Z,101899.22
2022-12-18T04:19:34.452Z,101910.94
2022-12-18T04:22:02.709Z,101905.56
2022-12-18T04:24:31.068Z,101916.28
2022-12-18T04:26:59.381Z,101928.72
2022-12-18T04:29:27.694Z,101919.19
2022-12-18T04:31:57.375Z,101921.38
2022-12-18T04:34:25.744Z,101938.13
2022-12-18T04:36:54.124Z,101928.59
2022-12-18T04:39:22.505Z,101932.50
2022-12-18T04:41:50.864Z,101933.38
2022-12-18T04:44:19.815Z,101938.94
2022-12-18T04:46:48.169Z,101944.63
2022-12-18T04:49:17.902Z,101944.28
2022-12-18T04:51:46.196Z,101946.31
2022-12-18T04:54:14.521Z,101947.72
2022-12-18T04:56:42.893Z,101949.78
2022-12-18T04:59:11.338Z,101955.19
2022-12-18T05:01:39.919Z,101961.63
2022-12-18T05:04:08.451Z,101965.78
2022-12-18T05:06:38.326Z,101968.06
2022-12-18T05:09:06.723Z,101972.22
2022-12-18T05:11:35.011Z,101978.66
2022-12-18T05:14:03.401Z,101981.94
2022-12-18T05:16:31.815Z,101985.06
2022-12-18T05:19:00.155Z,101991.66
2022-12-18T05:21:28.538Z,102000.69
2022-12-18T05:23:58.170Z,101992.03
2022-12-18T05:26:26.524Z,102004.34
2022-12-18T05:28:56.910Z,102004.09
2022-12-18T05:31:25.606Z,102013.19
2022-12-18T05:33:54.069Z,102017.09
2022-12-18T05:36:22.465Z,102010.94
2022-12-18T05:38:51.210Z,102029.31
2022-12-18T05:41:20.913Z,102020.50
2022-12-18T05:43:49.415Z,102032.81
2022-12-18T05:46:19.644Z,102031.47
2022-12-18T05:48:49.206Z,102026.69
2022-12-18T05:51:20.545Z,102037.63
2022-12-18T05:53:49.235Z,102039.63
2022-12-18T05:56:22.244Z,102043.91
2022-12-18T05:58:54.169Z,102041.63
2022-12-18T06:01:26.451Z,102038.34
2022-12-18T06:03:55.086Z,102051.94
2022-12-18T06:06:26.789Z,102042.75
2022-12-18T06:08:56.398Z,102047.16
2022-12-18T06:11:28.625Z,102050.81
2022-12-18T06:13:59.548Z,102054.56
2022-12-18T06:16:30.365Z,102059.34
2022-12-18T06:18:59.725Z,102071.41
2022-12-18T06:21:28.974Z,102070.03
2022-12-18T06:23:57.758Z,102075.94
2022-12-18T06:26:28.601Z,102087.28
2022-12-18T06:28:57.268Z,102096.81
2022-12-18T06:31:26.034Z,102095.28
2022-12-18T06:33:54.459Z,102100.22
2022-12-18T06:36:23.285Z,102101.97
2022-12-18T06:38:51.822Z,102102.84
2022-12-18T06:41:22.370Z,102109.78
2022-12-18T06:43:56.796Z,102114.41
2022-12-18T06:46:28.050Z,102116.03
2022-12-18T06:48:56.455Z,102117.56
2022-12-18T06:51:27.323Z,102125.63
2022-12-18T06:53:55.987Z,102139.22
2022-12-18T06:56:24.690Z,102141.88
2022-12-18T06:58:54.587Z,102142.75
2022-12-18T07:01:23.700Z,102138.09
2022-12-18T07:03:55.844Z,102139.88
2022-12-18T07:06:26.942Z,102140.75
2022-12-18T07:08:57.138Z,102149.94
2022-12-18T07:11:25.793Z,102146.66
2022-12-18T07:13:55.976Z,102155.19
2022-12-18T07:16:25.927Z,102169.69
2022-12-18T07:18:54.983Z,102163.25
2022-12-18T07:21:24.678Z,102165.88
2022-12-18T07:23:53.341Z,102169.78
2022-12-18T07:26:23.854Z,102170.91
2022-12-18T07:28:52.439Z,102174.31
2022-12-18T07:31:23.902Z,102177.84
2022-12-18T07:33:53.614Z,102177.84
2022-12-18T07:36:25.517Z,102174.81
2022-12-18T07:38:54.536Z,102171.16
2022-12-18T07:41:23.458Z,102179.94
2022-12-18T07:43:52.337Z,102188.63
2022-12-18T07:46:22.414Z,102191.31
2022-12-18T07:48:50.902Z,102198.84
2022-12-18T07:51:20.743Z,102204.09
2022-12-18T07:53:52.160Z,102203.38
2022-12-18T07:56:27.736Z,102213.44
2022-12-18T07:58:57.316Z,102216.72
2022-12-18T08:01:27.598Z,102221.13
2022-12-18T08:03:56.285Z,102228.81
2022-12-18T08:06:24.962Z,102227.81
2022-12-18T08:08:54.878Z,102239.13
2022-12-18T08:11:24.788Z,102236.22
2022-12-18T08:13:53.329Z,102246.91
2022-12-18T08:16:23.889Z,102244.38
2022-12-18T08:18:54.842Z,102247.75
2022-12-18T08:21:26.301Z,102240.56
2022-12-18T08:23:56.857Z,102258.31
2022-12-18T08:26:26.157Z,102255.94
2022-12-18T08:28:56.944Z,102260.44
2022-12-18T08:31:26.581Z,102256.41
2022-12-18T08:33:57.073Z,102264.34
2022-12-18T08:36:27.468Z,102279.84
2022-12-18T08:38:56.221Z,102274.91
2022-12-18T08:41:25.321Z,102287.66
2022-12-18T08:44:11.567Z,102276.78
2022-12-18T08:46:42.558Z,102287.66
2022-12-18T08:49:13.587Z,102281.34
2022-12-18T08:51:42.802Z,102280.09
2022-12-18T08:54:14.684Z,102286.53
2022-12-18T08:56:43.013Z,102289.44
2022-12-18T08:59:17.549Z,102293.34
2022-12-18T09:01:48.744Z,102283.53
2022-12-18T09:04:19.635Z,102284.91
2022-12-18T09:06:47.938Z,102292.09
2022-12-18T09:09:16.270Z,102295.72
2022-12-18T09:11:44.674Z,102299.25
2022-12-18T09:14:14.488Z,102302.88
2022-12-18T09:16:42.948Z,102304.78
2022-12-18T09:19:12.079Z,102304.16
2022-12-18T09:21:46.289Z,102309.31
2022-12-18T09:24:17.459Z,102311.19
2022-12-18T09:26:47.386Z,102308.78
2022-12-18T09:29:16.916Z,102313.94
2022-12-18T09:31:47.496Z,102309.03
2022-12-18T09:34:15.782Z,102305.59
2022-12-18T09:36:47.596Z,102305.69
2022-12-18T09:39:16.324Z,102309.03
2022-12-18T09:41:51.051Z,102315.94
2022-12-18T09:44:28.256Z,102303.84
2022-12-18T09:47:08.133Z,102311.19
2022-12-18T09:49:44.632Z,102309.66
2022-12-18T09:52:21.603Z,102319.66
2022-12-18T09:54:56.643Z,102323.78
2022-12-18T09:57:26.678Z,102321.06
2022-12-18T10:00:01.226Z,102317.75
2022-12-18T10:02:33.507Z,102322.78
2022-12-18T10:05:10.067Z,102328.28
2022-12-18T10:07:52.345Z,102321.38
2022-12-18T10:10:39.654Z,102323.28
2022-12-18T10:13:21.892Z,102330.50
2022-12-18T10:16:11.199Z,102338.72
2022-12-18T10:19:02.461Z,102340.13
2022-12-18T10:21:41.748Z,102335.94
2022-12-18T10:24:22.863Z,102338.47
2022-12-18T10:26:51.139Z,102358.78
2022-12-18T10:29:19.621Z,102334.41
2022-12-18T10:31:47.999Z,102327.25
2022-12-18T10:34:16.736Z,102339.22
2022-12-18T10:36:45.185Z,102338.59
2022-12-18T10:39:25.971Z,102333.53
2022-12-18T10:42:11.025Z,102336.31
2022-12-18T10:44:39.733Z,102338.06
2022-12-18T10:47:17.406Z,102332.66
2022-12-18T10:49:51.943Z,102332.66
2022-12-18T10:52:23.746Z,102328.38
2022-12-18T10:54:59.219Z,102327.63
2022-12-18T10:57:38.039Z,102323.78
2022-12-18T11:00:30.466Z,102339.19
2022-12-18T11:02:59.884Z,102342.19
2022-12-18T11:05:32.422Z,102337.25
2022-12-18T11:08:02.916Z,102333.84
2022-12-18T11:10:35.643Z,102330.56
2022-12-18T11:13:22.819Z,102335.56
2022-12-18T11:15:51.710Z,102333.53
2022-12-18T11:18:27.277Z,102337.28
2022-12-18T11:20:59.646Z,102334.22
2022-12-18T11:23:29.313Z,102338.88
2022-12-18T11:26:02.778Z,102341.88
2022-12-18T11:28:43.313Z,102341.44
2022-12-18T11:31:28.610Z,102342.81
2022-12-18T11:34:28.658Z,102351.19
2022-12-18T11:37:00.181Z,102343.19
2022-12-18T11:39:36.223Z,102342.13
2022-12-18T11:42:14.626Z,102338.16
2022-12-18T11:44:50.558Z,102345.25
2022-12-18T11:47:30.727Z,102340.63
2022-12-18T11:50:03.758Z,102340.97
2022-12-18T11:52:40.253Z,102349.88
2022-12-18T11:55:16.311Z,102351.44
2022-12-18T11:57:57.521Z,102351.22
2022-12-18T12:00:26.956Z,102344.44
2022-12-18T12:03:42.045Z,102353.25
2022-12-18T12:06:17.252Z,102350.09
2022-12-18T12:09:07.080Z,102342.47
2022-12-18T12:11:52.271Z,102337.72
2022-12-18T12:14:44.955Z,102344.31
2022-12-18T12:17:24.361Z,102351.44
2022-12-18T12:20:05.198Z,102335.38
2022-12-18T12:22:45.545Z,102335.59
2022-12-18T12:25:35.447Z,102342.28
2022-12-18T12:28:21.939Z,102348.13
2022-12-18T12:31:04.756Z,102359.81
2022-12-18T12:33:45.438Z,102355.44
2022-12-18T12:36:25.577Z,102363.47
2022-12-18T12:38:59.762Z,102367.75
2022-12-18T12:41:51.165Z,102377.91
2022-12-18T12:44:26.356Z,102381.09
2022-12-18T12:47:03.469Z,102378.66
2022-12-18T12:49:40.426Z,102378.13
2022-12-18T12:52:18.733Z,102387.03
2022-12-18T12:54:49.314Z,102388.00
2022-12-18T12:57:25.048Z,102396.56
2022-12-18T13:00:05.178Z,102400.50
2022-12-18T13:02:48.995Z,102412.34
2022-12-18T13:05:26.702Z,102428.78
2022-12-18T13:08:00.325Z,102415.91
2022-12-18T13:10:36.187Z,102430.09
2022-12-18T13:13:09.265Z,102422.16
2022-12-18T13:15:46.146Z,102425.00
2022-12-18T13:18:21.545Z,102442.69
2022-12-18T13:20:56.494Z,102444.84
2022-12-18T13:23:37.333Z,102441.88
2022-12-18T13:26:35.714Z,102431.28
2022-12-18T13:29:07.278Z,102438.50
2022-12-18T13:32:23.056Z,102437.25
2022-12-18T13:35:42.243Z,102438.19
2022-12-18T13:38:24.891Z,102449.56
2022-12-18T13:40:58.963Z,102449.84
2022-12-18T13:43:43.912Z,102449.38
2022-12-18T13:46:25.824Z,102444.59
2022-12-18T13:49:00.456Z,102450.91
2022-12-18T13:51:35.197Z,102452.22
2022-12-18T13:54:15.907Z,102463.19
2022-12-18T13:56:48.081Z,102461.81
2022-12-18T13:59:24.796Z,102466.38
2022-12-18T14:01:57.260Z,102469.53
2022-12-18T14:04:29.210Z,102476.84
2022-12-18T14:07:13.903Z,102477.25
2022-12-18T14:09:47.567Z,102478.25
2022-12-18T14:12:38.293Z,102479.53
2022-12-18T14:15:17.273Z,102481.06
2022-12-18T14:17:45.984Z,102485.97
2022-12-18T14:20:17.369Z,102488.22
2022-12-18T14:22:48.815Z,102485.34
2022-12-18T14:25:23.178Z,102490.66
2022-12-18T14:28:05.404Z,102474.47
2022-12-18T14:30:37.824Z,102480.56
2022-12-18T14:33:11.012Z,102471.97
2022-12-18T14:35:43.037Z,102475.00
2022-12-18T14:38:27.272Z,102481.56
2022-12-18T14:41:00.029Z,102479.66
2022-12-18T14:43:30.654Z,102481.31
2022-12-18T14:46:07.805Z,102495.81
2022-12-18T14:48:42.177Z,102499.22
2022-12-18T14:51:20.640Z,102494.19
2022-12-18T14:53:55.951Z,102493.94
2022-12-18T14:56:28.262Z,102500.34
2022-12-18T14:58:59.081Z,102492.78
2022-12-18T15:01:32.148Z,102494.81
2022-12-18T15:04:02.574Z,102503.25
2022-12-18T15:06:37.273Z,102501.50
2022-12-18T15:09:24.216Z,102513.34
2022-12-18T15:11:58.969Z,102520.13
2022-12-18T15:14:37.071Z,102523.44
2022-12-18T15:17:08.823Z,102520.78
2022-12-18T15:19:42.826Z,102522.44
2022-12-18T15:22:30.509Z,102512.47
2022-12-18T15:25:04.051Z,102514.09
2022-12-18T15:27:36.675Z,102513.84
2022-12-18T15:30:23.780Z,102513.72
2022-12-18T15:32:54.131Z,102517.63
2022-12-18T15:35:25.654Z,102520.63
2022-12-18T15:37:55.146Z,102523.16
2022-12-18T15:40:26.378Z,102524.69
2022-12-18T15:43:14.963Z,102534.88
2022-12-18T15:45:43.363Z,102529.84
2022-12-18T15:48:22.418Z,102527.19
2022-12-18T15:50:52.635Z,102525.44
2022-12-18T15:53:21.838Z,102542.31
2022-12-18T15:56:09.618Z,102538.16
2022-12-18T15:58:39.255Z,102537.03
2022-12-18T16:01:09.878Z,102532.38
2022-12-18T16:03:39.040Z,102537.16
2022-12-18T16:06:08.660Z,102536.38
2022-12-18T16:08:37.196Z,102537.25
2022-12-18T16:11:19.102Z,102533.25
2022-12-18T16:13:48.599Z,102535.75
2022-12-18T16:16:17.433Z,102541.53
2022-12-18T16:18:45.906Z,102543.06
2022-12-18T16:21:14.503Z,102541.31
2022-12-18T16:23:43.153Z,102546.09
2022-12-18T16:26:13.207Z,102534.09
2022-12-18T16:28:48.251Z,102536.00
2022-12-18T16:31:17.218Z,102536.00
2022-12-18T16:33:45.589Z,102530.81
2022-12-18T16:36:14.277Z,102536.00
2022-12-18T16:38:43.114Z,102531.47
2022-12-18T16:41:33.423Z,102541.28
2022-12-18T16:44:02.319Z,102542.50
2022-12-18T16:46:31.432Z,102531.44
2022-12-18T16:49:00.867Z,102533.19
2022-12-18T16:51:30.092Z,102542.38
2022-12-18T16:53:58.899Z,102552.47
2022-12-18T16:56:29.513Z,102553.84
2022-12-18T16:59:00.390Z,102559.00
2022-12-18T17:01:31.241Z,102561.66
2022-12-18T17:04:02.410Z,102576.28
2022-12-18T17:06:34.014Z,102567.25
2022-12-18T17:09:05.495Z,102560.41
2022-12-18T17:11:37.012Z,102568.75
2022-12-18T17:14:09.467Z,102574.66
2022-12-18T17:16:37.946Z,102573.78
2022-12-18T17:19:13.737Z,102577.31
2022-12-18T17:21:45.916Z,102574.81
2022-12-18T17:24:14.516Z,102576.28
2022-12-18T17:26:44.626Z,102566.97
2022-12-18T17:29:17.349Z,102569.84
2022-12-18T17:31:48.520Z,102566.44
2022-12-18T17:34:18.317Z,102571.22
2022-12-18T17:36:46.809Z,102569.94
2022-12-18T17:39:21.547Z,102572.19
2022-12-18T17:41:55.046Z,102567.94
2022-12-18T17:44:24.119Z,102575.75
2022-12-18T17:46:53.396Z,102579.16
2022-12-18T17:49:22.319Z,102577.50
2022-12-18T17:51:51.618Z,102579.16
2022-12-18T17:54:20.200Z,102592.38
2022-12-18T17:56:50.463Z,102600.69
2022-12-18T17:59:18.757Z,102607.22
2022-12-18T18:01:47.385Z,102603.41
2022-12-18T18:04:16.678Z,102598.72
2022-12-18T18:06:45.100Z,102601.88
2022-12-18T18:09:16.587Z,102614.19
2022-12-18T18:12:03.359Z,102598.94
2022-12-18T18:14:33.645Z,102587.47
2022-12-18T18:17:04.719Z,102587.69
2022-12-18T18:19:35.892Z,102599.22
2022-12-18T18:22:04.456Z,102588.88
2022-12-18T18:24:35.365Z,102592.16
2022-12-18T18:27:03.745Z,102596.44
2022-12-18T18:29:33.800Z,102601.47
2022-12-18T18:32:02.406Z,102608.28
2022-12-18T18:34:33.030Z,102601.19
2022-12-18T18:37:01.533Z,102599.16
2022-12-18T18:39:30.202Z,102601.41
2022-12-18T18:41:59.534Z,102592.84
2022-12-18T18:44:28.066Z,102590.53
2022-12-18T18:46:59.657Z,102597.81
2022-12-18T18:49:28.760Z,102598.84
2022-12-18T18:51:59.273Z,102602.09
2022-12-18T18:54:31.589Z,102607.28
2022-12-18T18:59:49.639Z,102591.03
2022-12-18T19:02:21.701Z,102580.41
2022-12-18T19:04:50.396Z,102580.59
2022-12-18T19:07:29.582Z,102596.94
2022-12-18T19:10:03.476Z,102615.75
2022-12-18T19:12:50.329Z,102623.44
2022-12-18T19:15:18.703Z,102609.41
2022-12-18T19:17:48.542Z,102595.56
2022-12-18T19:20:17.859Z,102596.91
2022-12-18T19:22:55.262Z,102588.19
2022-12-18T19:25:40.292Z,102597.03
2022-12-18T19:28:21.262Z,102597.78
2022-12-18T19:30:56.338Z,102603.41
2022-12-18T19:33:42.840Z,102621.78
2022-12-18T19:36:16.002Z,102624.91
2022-12-18T19:38:45.592Z,102622.72
2022-12-18T19:41:15.384Z,102629.81
2022-12-18T19:43:45.147Z,102640.63
2022-12-18T19:46:16.630Z,102640.81
2022-12-18T19:48:48.045Z,102629.31
2022-12-18T19:51:20.079Z,102632.28
2022-12-18T19:53:52.412Z,102628.88
2022-12-18T19:56:27.961Z,102619.59
2022-12-18T19:58:56.789Z,102617.19
2022-12-18T20:01:28.176Z,102613.81
2022-12-18T20:03:59.637Z,102622.38
2022-12-18T20:06:33.977Z,102614.09
2022-12-18T20:09:06.072Z,102621.34
2022-12-18T20:11:39.667Z,102620.34
2022-12-18T20:14:11.458Z,102626.84
2022-12-18T20:16:40.177Z,102617.66
2022-12-18T20:19:13.383Z,102617.81
2022-12-18T20:21:42.792Z,102619.13
2022-12-18T20:24:11.331Z,102622.81
2022-12-18T20:26:40.608Z,102631.34
2022-12-18T20:29:09.211Z,102632.09
2022-12-18T20:31:37.769Z,102631.97
2022-12-18T20:34:09.971Z,102629.31
2022-12-18T20:36:41.095Z,102633.31
2022-12-18T20:39:12.220Z,102623.25
2022-12-18T20:41:43.045Z,102633.16
2022-12-18T20:44:23.663Z,102633.63
2022-12-18T20:46:54.956Z,102649.88
2022-12-18T20:49:28.773Z,102640.69
2022-12-18T20:51:59.557Z,102651.03
2022-12-18T20:54:29.123Z,102659.75
2022-12-18T20:56:58.390Z,102657.81
2022-12-18T20:59:26.886Z,102644.84
2022-12-18T21:01:56.058Z,102659.75
2022-12-18T21:04:27.179Z,102666.44
2022-12-18T21:07:02.121Z,102655.19
2022-12-18T21:09:37.793Z,102659.34
2022-12-18T21:12:30.165Z,102654.31
2022-12-18T21:15:03.128Z,102661.28
2022-12-18T21:17:31.559Z,102649.59
2022-12-18T21:20:17.584Z,102653.44
2022-12-18T21:22:46.826Z,102663.63
2022-12-18T21:25:15.490Z,102649.88
2022-12-18T21:27:44.021Z,102640.72
2022-12-18T21:30:13.625Z,102644.56
2022-12-18T21:32:42.527Z,102643.78
2022-12-18T21:35:11.394Z,102631.22
2022-12-18T21:37:41.225Z,102621.16
2022-12-18T21:40:11.418Z,102622.75
2022-12-18T21:42:57.389Z,102618.59
2022-12-18T21:45:26.247Z,102613.72
2022-12-18T21:47:54.718Z,102624.06
2022-12-18T21:50:23.465Z,102602.31
2022-12-18T21:52:53.233Z,102602.31
2022-12-18T21:55:21.636Z,102589.75
2022-12-18T21:57:50.355Z,102584.75
2022-12-18T22:00:19.843Z,102588.34
2022-12-18T22:03:15.567Z,102578.75
2022-12-18T22:05:37.593Z,102568.53
2022-12-18T22:08:07.885Z,102572.09
2022-12-18T22:10:39.412Z,102559.25
2022-12-18T22:13:09.299Z,102547.28
2022-12-18T22:15:37.824Z,102551.69
2022-12-18T22:18:06.263Z,102547.44
2022-12-18T22:20:34.722Z,102542.41
2022-12-18T22:23:05.648Z,102534.22
2022-12-18T22:25:37.268Z,102541.94
2022-12-18T22:28:25.611Z,102549.00
2022-12-18T22:30:54.877Z,102541.47
2022-12-18T22:33:29.102Z,102542.81
2022-12-18T22:35:57.476Z,102550.34
2022-12-18T22:38:27.489Z,102552.13
2022-12-18T22:40:57.752Z,102553.28
2022-12-18T22:43:26.193Z,102560.22
2022-12-18T22:45:55.471Z,102551.66
2022-12-18T22:48:24.591Z,102547.50
2022-12-18T22:50:53.090Z,102540.13
2022-12-18T22:53:26.783Z,102533.81
2022-12-18T22:56:03.432Z,102542.25
2022-12-18T22:58:31.764Z,102550.81
2022-12-18T23:01:01.500Z,102548.31
2022-12-18T23:03:30.300Z,102549.31
2022-12-18T23:06:05.473Z,102541.78
2022-12-18T23:08:34.463Z,102538.53
2022-12-18T23:11:06.817Z,102535.13
2022-12-18T23:13:36.203Z,102538.38
2022-12-18T23:16:07.823Z,102540.44
2022-12-18T23:18:37.173Z,102545.44
2022-12-18T23:21:07.347Z,102546.22
2022-12-18T23:23:37.672Z,102537.50
2022-12-18T23:26:10.759Z,102538.09
2022-12-18T23:28:40.346Z,102536.34
2022-12-18T23:31:11.759Z,102537.22
2022-12-18T23:33:42.818Z,102543.28
2022-12-18T23:36:13.627Z,102530.84
2022-12-18T23:38:42.594Z,102538.09
2022-12-18T23:41:15.986Z,102527.50
2022-12-18T23:43:44.631Z,102532.56
2022-12-18T23:46:21.275Z,102522.84
2022-12-18T23:48:50.165Z,102526.09
2022-12-18T23:51:23.411Z,102527.72
2022-12-18T23:53:52.098Z,102530.97
2022-12-18T23:56:22.403Z,102531.72
2022-12-18T23:58:52.665Z,102519.91
